Time;durP1;ratioP1;P1;durP2;ratioP2;P2;SDS_P1;SDS_P2;PMS_P1;PMS_P2;Temp;Humidity;BMP_temperature;BMP_pressure;BME280_temperature;BME280_humidity;BME280_pressure;Samples;Min_cycle;Max_cycle;Signal;HPM_P1;HPM_P2
2023/05/17 00:01:55;;;;;;;;;;;8.70;99.90;;;;;;5111689;28;19920;-55
2023/05/17 00:04:22;;;;;;;;;;;8.70;99.90;;;;;;5113632;28;19947;-58
2023/05/17 00:06:48;;;;;;;;;;;8.60;99.90;;;;;;5114507;28;19924;-58
2023/05/17 00:09:15;;;;;;;;;;;8.60;99.90;;;;;;5109538;28;19920;-58
2023/05/17 00:11:42;;;;;;;;;;;8.70;99.90;;;;;;5113750;28;20291;-58
2023/05/17 00:14:08;;;;;;;;;;;8.60;99.90;;;;;;5114252;28;19928;-56
2023/05/17 00:16:35;;;;;;;;;;;8.60;99.90;;;;;;5114631;28;19934;-57
2023/05/17 00:19:02;;;;;;;;;;;8.60;99.90;;;;;;5114515;28;19930;-55
2023/05/17 00:21:30;;;;;;;;;;;8.60;99.90;;;;;;5106831;28;19930;-58
2023/05/17 00:23:56;;;;;;;;;;;8.50;99.90;;;;;;5095926;28;19926;-56
2023/05/17 00:26:23;;;;;;;;;;;8.50;99.90;;;;;;5107410;28;19920;-53
2023/05/17 00:28:50;;;;;;;;;;;8.50;99.90;;;;;;5105841;28;19927;-56
2023/05/17 00:31:16;;;;;;;;;;;8.50;99.90;;;;;;5091829;28;19919;-58
2023/05/17 00:33:43;;;;;;;;;;;8.50;99.90;;;;;;5102434;28;19965;-55
2023/05/17 00:36:10;;;;;;;;;;;8.50;99.90;;;;;;5087134;28;19934;-57
2023/05/17 00:38:36;;;;;;;;;;;8.40;99.90;;;;;;5114161;28;19966;-57
2023/05/17 00:41:04;;;;;;;;;;;8.40;99.90;;;;;;5112973;28;20390;-56
2023/05/17 00:43:31;;;;;;;;;;;8.40;99.90;;;;;;5113762;28;19919;-57
2023/05/17 00:45:57;;;;;;;;;;;8.40;99.90;;;;;;5113673;28;19927;-58
2023/05/17 00:48:24;;;;;;;;;;;8.40;99.90;;;;;;5095653;28;19920;-58
2023/05/17 00:50:52;;;;;;;;;;;8.30;99.90;;;;;;5113887;27;20023;-56
2023/05/17 00:53:19;;;;;;;;;;;8.30;99.90;;;;;;5112976;28;19926;-56
2023/05/17 00:55:46;;;;;;;;;;;8.30;99.90;;;;;;5114219;28;19919;-53
2023/05/17 00:58:13;;;;;;;;;;;8.30;99.90;;;;;;5113884;28;19919;-55
2023/05/17 01:00:40;;;;;;;;;;;8.30;99.90;;;;;;5094434;28;19926;-58
2023/05/17 01:03:07;;;;;;;;;;;8.30;99.90;;;;;;5086597;28;19920;-56
2023/05/17 01:05:34;;;;;;;;;;;8.30;99.90;;;;;;5095219;28;19927;-55
2023/05/17 01:08:01;;;;;;;;;;;8.30;99.90;;;;;;5107138;28;19956;-58
2023/05/17 01:10:38;;;;;;;;;;;8.30;99.90;;;;;;5112738;28;20283;-55
2023/05/17 01:13:09;;;;;;;;;;;8.30;99.90;;;;;;5112557;28;19924;-55
2023/05/17 01:15:38;;;;;;;;;;;8.30;99.90;;;;;;5106473;28;20318;-57
2023/05/17 01:18:09;;;;;;;;;;;8.30;99.90;;;;;;5093756;28;19919;-56
2023/05/17 01:20:37;;;;;;;;;;;8.30;99.90;;;;;;5112025;28;19928;-57
2023/05/17 01:23:04;;;;;;;;;;;8.30;99.90;;;;;;5085560;28;20307;-55
2023/05/17 01:25:50;;;;;;;;;;;8.30;99.90;;;;;;5095305;28;19920;-54
2023/05/17 01:28:17;;;;;;;;;;;8.20;99.90;;;;;;5086409;28;19942;-57
2023/05/17 01:30:45;;;;;;;;;;;8.20;99.90;;;;;;5093935;28;20002;-56
2023/05/17 01:33:12;;;;;;;;;;;8.20;99.90;;;;;;5113118;28;19920;-57
2023/05/17 01:35:40;;;;;;;;;;;8.20;99.90;;;;;;5104818;28;19919;-57
2023/05/17 01:38:06;;;;;;;;;;;8.20;99.90;;;;;;5110119;28;19926;-57
2023/05/17 01:40:35;;;;;;;;;;;8.10;99.90;;;;;;5074622;28;20650;-57
2023/05/17 01:43:16;;;;;;;;;;;8.10;99.90;;;;;;5083441;28;20441;-56
2023/05/17 01:45:47;;;;;;;;;;;8.10;99.90;;;;;;5090573;28;19927;-58
2023/05/17 01:48:19;;;;;;;;;;;8.10;99.90;;;;;;5110433;28;19927;-55
2023/05/17 01:50:47;;;;;;;;;;;8.10;99.90;;;;;;5086914;28;20417;-58
2023/05/17 01:53:19;;;;;;;;;;;8.00;99.90;;;;;;5084890;28;20010;-55
2023/05/17 01:55:49;;;;;;;;;;;8.00;99.90;;;;;;5094665;28;20398;-55
2023/05/17 01:58:17;;;;;;;;;;;7.90;99.90;;;;;;5104286;28;19926;-57
2023/05/17 02:00:45;;;;;;;;;;;7.90;99.90;;;;;;5091443;28;19959;-55
2023/05/17 02:03:15;;;;;;;;;;;7.90;99.90;;;;;;5107426;28;20011;-54
2023/05/17 02:05:42;;;;;;;;;;;7.90;99.90;;;;;;5090046;28;19973;-57
2023/05/17 02:08:09;;;;;;;;;;;7.90;99.90;;;;;;5091307;28;19920;-56
2023/05/17 02:10:36;;;;;;;;;;;7.90;99.90;;;;;;5105653;28;19919;-57
2023/05/17 02:13:02;;;;;;;;;;;7.80;99.90;;;;;;5112371;28;19930;-55
2023/05/17 02:15:29;;;;;;;;;;;7.90;99.90;;;;;;5110181;28;20473;-57
2023/05/17 02:17:58;;;;;;;;;;;7.80;99.90;;;;;;5112697;28;19920;-57
2023/05/17 02:20:25;;;;;;;;;;;7.80;99.90;;;;;;5112292;28;19930;-57
2023/05/17 02:22:51;;;;;;;;;;;7.90;99.90;;;;;;5093530;28;19919;-55
2023/05/17 02:25:18;;;;;;;;;;;7.90;99.90;;;;;;5094016;28;19926;-57
2023/05/17 02:27:45;;;;;;;;;;;7.90;99.90;;;;;;5112673;28;20355;-58
2023/05/17 02:30:13;;;;;;;;;;;8.40;99.90;;;;;;5111857;28;20270;-58
2023/05/17 02:32:42;;;;;;;;;;;7.90;99.90;;;;;;5111203;28;19924;-57
2023/05/17 02:35:09;;;;;;;;;;;7.90;99.90;;;;;;5094066;28;19920;-56
2023/05/17 02:37:36;;;;;;;;;;;7.90;99.90;;;;;;5093980;28;19930;-57
2023/05/17 02:40:08;;;;;;;;;;;7.90;99.90;;;;;;5094103;28;19920;-56
2023/05/17 02:42:35;;;;;;;;;;;7.90;99.90;;;;;;5108470;28;19927;-57
2023/05/17 02:45:02;;;;;;;;;;;7.90;99.90;;;;;;5105362;28;19924;-56
2023/05/17 02:47:29;;;;;;;;;;;7.90;99.90;;;;;;5080425;28;19924;-57
2023/05/17 02:49:55;;;;;;;;;;;7.90;99.90;;;;;;5108564;28;20349;-57
2023/05/17 02:52:22;;;;;;;;;;;7.80;99.90;;;;;;5092461;28;19920;-56
2023/05/17 02:54:50;;;;;;;;;;;7.80;99.90;;;;;;5093929;28;19919;-58
2023/05/17 02:57:16;;;;;;;;;;;7.80;99.90;;;;;;5085271;28;19973;-54
2023/05/17 02:59:43;;;;;;;;;;;7.80;99.90;;;;;;5084349;28;19919;-58
2023/05/17 03:02:11;;;;;;;;;;;7.80;99.90;;;;;;5093405;28;19923;-55
2023/05/17 03:04:37;;;;;;;;;;;7.70;99.90;;;;;;5111754;28;19926;-57
2023/05/17 03:07:04;;;;;;;;;;;7.70;99.90;;;;;;5093693;28;19959;-57
2023/05/17 03:09:33;;;;;;;;;;;7.70;99.90;;;;;;5063208;28;19934;-57
2023/05/17 03:12:00;;;;;;;;;;;7.70;99.90;;;;;;5081554;28;20019;-56
2023/05/17 03:14:30;;;;;;;;;;;7.60;99.90;;;;;;5090689;28;20014;-54
2023/05/17 03:16:56;;;;;;;;;;;7.60;99.90;;;;;;5088587;28;19919;-56
2023/05/17 03:19:24;;;;;;;;;;;7.60;99.90;;;;;;5089392;28;19927;-53
2023/05/17 03:21:51;;;;;;;;;;;7.60;99.90;;;;;;5092657;28;19923;-57
2023/05/17 03:24:18;;;;;;;;;;;7.70;99.90;;;;;;5079190;28;20314;-54
2023/05/17 03:26:45;;;;;;;;;;;7.70;99.90;;;;;;5081479;28;19926;-57
2023/05/17 03:29:12;;;;;;;;;;;7.70;99.90;;;;;;5069002;28;20341;-57
2023/05/17 03:31:41;;;;;;;;;;;8.30;99.90;;;;;;5108663;28;19920;-57
2023/05/17 03:34:08;;;;;;;;;;;7.60;99.90;;;;;;5101242;28;20421;-55
2023/05/17 03:36:38;;;;;;;;;;;7.60;99.90;;;;;;5088436;28;19998;-58
2023/05/17 03:39:05;;;;;;;;;;;8.40;99.90;;;;;;5090668;28;20241;-57
2023/05/17 03:41:32;;;;;;;;;;;7.50;99.90;;;;;;5109826;28;20386;-57
2023/05/17 03:44:00;;;;;;;;;;;7.60;99.90;;;;;;5087897;28;19920;-56
2023/05/17 03:46:27;;;;;;;;;;;8.30;99.90;;;;;;5088451;28;19931;-54
2023/05/17 03:48:53;;;;;;;;;;;7.60;99.90;;;;;;5090752;28;19924;-57
2023/05/17 03:51:20;;;;;;;;;;;7.60;99.90;;;;;;5092717;28;20344;-55
2023/05/17 03:53:49;;;;;;;;;;;7.60;99.90;;;;;;5087739;28;19973;-57
2023/05/17 03:56:16;;;;;;;;;;;7.50;99.90;;;;;;5090213;28;19926;-57
2023/05/17 03:58:43;;;;;;;;;;;7.50;99.90;;;;;;5092215;28;19965;-55
2023/05/17 04:01:10;;;;;;;;;;;7.50;99.90;;;;;;5086713;28;19920;-54
2023/05/17 04:03:38;;;;;;;;;;;7.50;99.90;;;;;;5086544;28;20365;-57
2023/05/17 04:06:05;;;;;;;;;;;7.40;99.90;;;;;;5089143;28;19988;-58
2023/05/17 04:08:34;;;;;;;;;;;7.40;99.90;;;;;;5090539;28;19953;-54
2023/05/17 04:11:09;;;;;;;;;;;7.40;99.90;;;;;;5087297;28;19931;-55
2023/05/17 04:13:36;;;;;;;;;;;7.40;99.90;;;;;;5092764;28;20005;-57
2023/05/17 04:16:03;;;;;;;;;;;7.40;99.90;;;;;;5089911;28;19973;-56
2023/05/17 04:18:33;;;;;;;;;;;7.40;99.90;;;;;;5089511;28;19957;-57
2023/05/17 04:21:00;;;;;;;;;;;7.40;99.90;;;;;;5100328;28;19919;-57
2023/05/17 04:23:26;;;;;;;;;;;7.40;99.90;;;;;;5086220;28;19945;-58
2023/05/17 04:25:53;;;;;;;;;;;7.40;99.90;;;;;;5105174;28;20307;-56
2023/05/17 04:28:20;;;;;;;;;;;7.40;99.90;;;;;;5087593;28;20288;-56
2023/05/17 04:30:47;;;;;;;;;;;7.30;99.90;;;;;;5103072;28;19935;-56
2023/05/17 04:33:14;;;;;;;;;;;7.30;99.90;;;;;;5085217;28;19920;-54
2023/05/17 04:35:41;;;;;;;;;;;7.30;99.90;;;;;;5087453;28;19920;-56
2023/05/17 04:38:08;;;;;;;;;;;7.40;99.90;;;;;;5090216;28;19924;-57
2023/05/17 04:40:35;;;;;;;;;;;7.40;99.90;;;;;;5085290;28;20007;-57
2023/05/17 04:43:02;;;;;;;;;;;7.40;99.90;;;;;;5088153;28;19920;-56
2023/05/17 04:45:29;;;;;;;;;;;7.40;99.90;;;;;;5105968;28;19959;-53
2023/05/17 04:47:58;;;;;;;;;;;7.30;99.90;;;;;;5087859;28;19920;-57
2023/05/17 04:50:26;;;;;;;;;;;7.30;99.90;;;;;;5085365;28;19930;-58
2023/05/17 04:52:53;;;;;;;;;;;7.30;99.90;;;;;;5100563;28;20384;-53
2023/05/17 04:55:19;;;;;;;;;;;7.20;99.90;;;;;;5082694;28;19920;-54
2023/05/17 04:57:46;;;;;;;;;;;7.20;99.90;;;;;;5085936;28;19920;-57
2023/05/17 05:00:15;;;;;;;;;;;7.20;99.90;;;;;;5085105;28;19920;-57
2023/05/17 05:02:47;;;;;;;;;;;7.20;99.90;;;;;;5093709;28;20022;-56
2023/05/17 05:05:14;;;;;;;;;;;7.10;99.90;;;;;;5093267;28;19919;-53
2023/05/17 05:07:42;;;;;;;;;;;7.20;99.90;;;;;;5088303;28;20095;-53
2023/05/17 05:10:09;;;;;;;;;;;7.20;99.90;;;;;;5093061;28;20417;-56
2023/05/17 05:12:36;;;;;;;;;;;7.20;99.90;;;;;;5086880;28;19965;-54
2023/05/17 05:15:04;;;;;;;;;;;7.30;99.90;;;;;;5094464;28;20368;-58
2023/05/17 05:17:32;;;;;;;;;;;7.30;99.90;;;;;;5087105;28;20022;-57
2023/05/17 05:19:59;;;;;;;;;;;7.30;99.90;;;;;;5094123;28;20387;-56
2023/05/17 05:22:26;;;;;;;;;;;7.30;99.90;;;;;;5094530;28;19928;-57
2023/05/17 05:24:54;;;;;;;;;;;7.30;99.90;;;;;;5094859;28;20174;-57
2023/05/17 05:27:21;;;;;;;;;;;7.30;99.90;;;;;;5092536;28;20295;-58
2023/05/17 05:29:48;;;;;;;;;;;7.30;99.90;;;;;;5091752;28;19951;-57
2023/05/17 05:32:15;;;;;;;;;;;7.30;99.90;;;;;;5108405;28;20265;-57
2023/05/17 05:34:44;;;;;;;;;;;7.30;99.90;;;;;;5091018;28;19920;-55
2023/05/17 05:37:11;;;;;;;;;;;7.40;99.90;;;;;;5084801;28;20011;-58
2023/05/17 05:39:37;;;;;;;;;;;8.00;99.90;;;;;;5092429;28;19919;-56
2023/05/17 05:42:04;;;;;;;;;;;7.40;99.90;;;;;;5085247;28;19920;-58
2023/05/17 05:44:31;;;;;;;;;;;7.40;99.90;;;;;;5094729;28;19920;-53
2023/05/17 05:46:58;;;;;;;;;;;7.30;99.90;;;;;;5077663;28;20368;-56
2023/05/17 05:49:25;;;;;;;;;;;7.30;99.90;;;;;;5093032;28;19919;-58
2023/05/17 05:51:53;;;;;;;;;;;7.30;99.90;;;;;;5094066;28;19924;-54
2023/05/17 05:54:20;;;;;;;;;;;7.30;99.90;;;;;;5092513;28;20007;-55
2023/05/17 05:56:51;;;;;;;;;;;7.30;99.90;;;;;;5092881;28;19920;-56
2023/05/17 05:59:18;;;;;;;;;;;7.30;99.90;;;;;;5100235;28;19923;-58
2023/05/17 06:01:45;;;;;;;;;;;7.40;99.90;;;;;;5093644;28;19926;-57
2023/05/17 06:04:12;;;;;;;;;;;7.40;99.90;;;;;;5112472;28;19926;-55
2023/05/17 06:06:38;;;;;;;;;;;7.40;99.90;;;;;;5107315;28;19920;-54
2023/05/17 06:09:06;;;;;;;;;;;7.40;99.90;;;;;;5108265;28;19930;-57
2023/05/17 06:11:37;;;;;;;;;;;7.40;99.90;;;;;;5097968;28;20368;-58
2023/05/17 06:14:04;;;;;;;;;;;7.30;99.90;;;;;;5106955;28;19924;-55
2023/05/17 06:16:30;;;;;;;;;;;7.30;99.90;;;;;;5110309;28;19931;-57
2023/05/17 06:18:57;;;;;;;;;;;7.30;99.90;;;;;;5092672;28;19920;-57
2023/05/17 06:21:24;;;;;;;;;;;7.30;99.90;;;;;;5098816;28;19920;-55
2023/05/17 06:23:51;;;;;;;;;;;7.40;99.90;;;;;;5099428;28;19924;-57
2023/05/17 06:26:18;;;;;;;;;;;7.40;99.90;;;;;;5103911;28;19923;-56
2023/05/17 06:28:45;;;;;;;;;;;7.30;99.90;;;;;;5111978;28;19920;-55
2023/05/17 06:31:11;;;;;;;;;;;7.30;99.90;;;;;;5110492;28;20283;-56
2023/05/17 06:33:38;;;;;;;;;;;7.30;99.90;;;;;;5102854;28;19949;-53
2023/05/17 06:36:05;;;;;;;;;;;7.30;99.90;;;;;;5111494;28;19920;-53
2023/05/17 06:38:32;;;;;;;;;;;7.30;99.90;;;;;;5102518;28;20002;-55
2023/05/17 06:40:58;;;;;;;;;;;7.30;99.90;;;;;;5111700;28;20271;-53
2023/05/17 06:43:25;;;;;;;;;;;7.30;99.90;;;;;;5098301;28;19931;-57
2023/05/17 06:45:52;;;;;;;;;;;7.30;99.90;;;;;;5091299;28;19926;-55
2023/05/17 06:48:19;;;;;;;;;;;7.30;99.90;;;;;;5098691;28;19927;-55
2023/05/17 06:50:45;;;;;;;;;;;7.30;99.90;;;;;;5104769;28;20325;-53
2023/05/17 06:53:12;;;;;;;;;;;7.30;99.90;;;;;;5102490;28;19931;-54
2023/05/17 06:55:39;;;;;;;;;;;7.40;99.90;;;;;;5111866;28;19926;-55
2023/05/17 06:58:06;;;;;;;;;;;7.30;99.90;;;;;;5111338;28;19994;-53
2023/05/17 07:00:33;;;;;;;;;;;7.30;99.90;;;;;;5103058;28;19962;-58
2023/05/17 07:03:00;;;;;;;;;;;7.30;99.90;;;;;;5109675;28;19920;-53
2023/05/17 07:05:29;;;;;;;;;;;7.30;99.90;;;;;;5103007;28;19924;-53
2023/05/17 07:07:57;;;;;;;;;;;7.80;99.90;;;;;;5102847;28;19925;-55
2023/05/17 07:10:24;;;;;;;;;;;7.20;99.90;;;;;;5106204;28;19919;-57
2023/05/17 07:12:51;;;;;;;;;;;7.20;99.90;;;;;;5094797;28;19964;-56
2023/05/17 07:15:18;;;;;;;;;;;7.20;99.90;;;;;;5102115;28;19924;-56
2023/05/17 07:17:44;;;;;;;;;;;7.20;99.90;;;;;;5113308;28;19923;-58
2023/05/17 07:20:12;;;;;;;;;;;7.20;99.90;;;;;;5114593;28;20221;-55
2023/05/17 07:22:39;;;;;;;;;;;7.20;99.90;;;;;;5098240;28;20338;-57
2023/05/17 07:25:06;;;;;;;;;;;7.10;99.90;;;;;;5104668;28;19927;-55
2023/05/17 07:27:32;;;;;;;;;;;7.10;99.90;;;;;;5114173;28;19961;-56
2023/05/17 07:30:00;;;;;;;;;;;7.10;99.90;;;;;;5113319;28;19926;-55
2023/05/17 07:32:26;;;;;;;;;;;7.10;99.90;;;;;;5112246;28;19926;-54
2023/05/17 07:34:53;;;;;;;;;;;7.10;99.90;;;;;;5102112;28;19950;-54
2023/05/17 07:37:20;;;;;;;;;;;7.20;99.90;;;;;;5110861;28;19920;-53
2023/05/17 07:39:46;;;;;;;;;;;7.20;99.90;;;;;;5108594;28;20287;-55
2023/05/17 07:42:13;;;;;;;;;;;7.10;99.90;;;;;;5106104;28;20399;-56
2023/05/17 07:44:40;;;;;;;;;;;7.20;99.90;;;;;;5097536;28;19919;-57
2023/05/17 07:47:06;;;;;;;;;;;7.20;99.90;;;;;;5105703;28;19924;-57
2023/05/17 07:49:33;;;;;;;;;;;7.20;99.90;;;;;;5094805;28;19970;-55
2023/05/17 07:52:01;;;;;;;;;;;7.30;99.90;;;;;;5102322;28;19920;-57
2023/05/17 07:54:28;;;;;;;;;;;7.30;99.90;;;;;;5104123;28;20418;-57
2023/05/17 07:56:55;;;;;;;;;;;7.40;99.90;;;;;;5114167;28;20378;-57
2023/05/17 07:59:22;;;;;;;;;;;7.40;99.90;;;;;;5111496;28;19920;-57
2023/05/17 08:01:48;;;;;;;;;;;7.50;99.90;;;;;;5113222;28;19923;-55
2023/05/17 08:04:15;;;;;;;;;;;7.50;99.90;;;;;;5104569;28;20376;-57
2023/05/17 08:06:44;;;;;;;;;;;7.50;99.90;;;;;;5109882;28;20380;-54
2023/05/17 08:09:11;;;;;;;;;;;7.50;99.90;;;;;;5105028;28;19920;-55
2023/05/17 08:11:44;;;;;;;;;;;7.40;99.90;;;;;;5093638;28;19920;-54
2023/05/17 08:14:15;;;;;;;;;;;7.30;99.90;;;;;;5101914;28;19921;-56
2023/05/17 08:16:42;;;;;;;;;;;7.30;99.90;;;;;;5105894;28;19924;-56
2023/05/17 08:19:11;;;;;;;;;;;7.20;99.90;;;;;;5112366;28;19927;-53
2023/05/17 08:21:39;;;;;;;;;;;7.20;99.90;;;;;;5110808;28;19927;-57
2023/05/17 08:24:06;;;;;;;;;;;7.20;99.90;;;;;;5101288;28;20011;-57
2023/05/17 08:26:33;;;;;;;;;;;7.20;99.90;;;;;;5106227;28;19926;-57
2023/05/17 08:29:01;;;;;;;;;;;7.20;99.90;;;;;;5101976;28;19926;-56
2023/05/17 08:31:28;;;;;;;;;;;7.10;99.90;;;;;;5110003;28;19926;-55
2023/05/17 08:33:55;;;;;;;;;;;7.00;99.90;;;;;;5108349;28;19927;-56
2023/05/17 08:36:21;;;;;;;;;;;7.70;99.90;;;;;;5109914;28;19920;-53
2023/05/17 08:38:48;;;;;;;;;;;7.10;99.90;;;;;;5100546;28;19923;-55
2023/05/17 08:41:15;;;;;;;;;;;7.10;99.90;;;;;;5101709;28;19924;-54
2023/05/17 08:43:43;;;;;;;;;;;7.20;99.90;;;;;;5099698;28;20006;-57
2023/05/17 08:46:10;;;;;;;;;;;7.20;99.90;;;;;;5093348;28;19948;-57
2023/05/17 08:48:40;;;;;;;;;;;7.20;99.90;;;;;;5103300;28;19927;-53
2023/05/17 08:51:10;;;;;;;;;;;7.30;99.90;;;;;;5106806;28;19928;-57
2023/05/17 08:53:37;;;;;;;;;;;7.30;99.90;;;;;;5103490;28;20290;-56
2023/05/17 08:56:06;;;;;;;;;;;7.40;99.90;;;;;;5107045;28;19959;-57
2023/05/17 08:58:37;;;;;;;;;;;7.50;99.90;;;;;;5108598;28;19920;-55
2023/05/17 09:01:22;;;;;;;;;;;7.50;99.90;;;;;;5108011;28;19920;-57
2023/05/17 09:03:52;;;;;;;;;;;7.60;99.90;;;;;;5099798;28;20411;-53
2023/05/17 09:06:20;;;;;;;;;;;7.60;99.90;;;;;;5101016;28;19920;-56
2023/05/17 09:08:51;;;;;;;;;;;7.70;99.90;;;;;;5101175;28;19931;-55
2023/05/17 09:11:25;;;;;;;;;;;7.80;99.90;;;;;;5109348;28;19919;-58
2023/05/17 09:13:52;;;;;;;;;;;7.80;99.90;;;;;;5104334;28;19920;-57
2023/05/17 09:16:20;;;;;;;;;;;7.70;99.90;;;;;;5106681;28;19942;-56
2023/05/17 09:18:55;;;;;;;;;;;7.70;99.90;;;;;;5104799;28;19926;-57
2023/05/17 09:21:22;;;;;;;;;;;7.70;99.90;;;;;;5103080;28;20011;-55
2023/05/17 09:23:52;;;;;;;;;;;7.70;99.90;;;;;;5103810;28;19993;-55
2023/05/17 09:26:39;;;;;;;;;;;7.60;99.90;;;;;;5092325;28;19920;-56
2023/05/17 09:29:10;;;;;;;;;;;7.50;99.90;;;;;;5107088;28;20372;-54
2023/05/17 09:31:37;;;;;;;;;;;7.50;99.90;;;;;;5108243;28;19926;-54
2023/05/17 09:34:05;;;;;;;;;;;7.60;99.90;;;;;;5101303;28;20280;-58
2023/05/17 09:36:34;;;;;;;;;;;7.70;99.90;;;;;;5110921;28;19919;-56
2023/05/17 09:39:04;;;;;;;;;;;7.70;99.90;;;;;;5100388;28;19920;-58
2023/05/17 09:41:32;;;;;;;;;;;7.70;99.90;;;;;;5101875;28;19957;-54
2023/05/17 09:43:59;;;;;;;;;;;7.80;99.90;;;;;;5092890;28;19920;-55
2023/05/17 09:46:27;;;;;;;;;;;7.80;99.90;;;;;;5100475;28;19959;-55
2023/05/17 09:48:54;;;;;;;;;;;7.80;99.90;;;;;;5091745;28;19924;-57
2023/05/17 09:51:41;;;;;;;;;;;7.80;99.90;;;;;;5091685;28;19926;-55
2023/05/17 09:54:12;;;;;;;;;;;7.90;99.90;;;;;;5098137;28;19965;-56
2023/05/17 09:56:39;;;;;;;;;;;7.80;99.90;;;;;;5099547;28;20291;-56
2023/05/17 09:59:11;;;;;;;;;;;7.80;99.90;;;;;;5112621;28;20007;-57
2023/05/17 10:01:42;;;;;;;;;;;7.80;99.90;;;;;;5103417;28;19920;-56
2023/05/17 10:04:09;;;;;;;;;;;7.80;99.90;;;;;;5103177;28;20290;-55
2023/05/17 10:06:38;;;;;;;;;;;7.80;99.90;;;;;;5107280;28;19924;-56
2023/05/17 10:09:15;;;;;;;;;;;7.80;99.90;;;;;;5094296;28;19924;-56
2023/05/17 10:11:44;;;;;;;;;;;7.90;99.90;;;;;;5103247;28;19935;-57
2023/05/17 10:14:21;;;;;;;;;;;7.90;99.90;;;;;;5098738;28;20334;-54
2023/05/17 10:16:48;;;;;;;;;;;7.80;99.90;;;;;;5091906;28;19970;-54
2023/05/17 10:19:18;;;;;;;;;;;7.80;99.90;;;;;;5106068;28;20036;-53
2023/05/17 10:21:46;;;;;;;;;;;7.80;99.90;;;;;;5108665;28;19920;-57
2023/05/17 10:24:13;;;;;;;;;;;7.80;99.90;;;;;;5105880;28;20299;-56
2023/05/17 10:26:40;;;;;;;;;;;7.90;99.90;;;;;;5101157;28;19927;-56
2023/05/17 10:29:07;;;;;;;;;;;7.90;99.90;;;;;;5093812;28;19926;-54
2023/05/17 10:31:35;;;;;;;;;;;8.90;99.90;;;;;;5109730;28;20022;-56
2023/05/17 10:34:08;;;;;;;;;;;8.10;99.90;;;;;;5103244;28;19926;-56
2023/05/17 10:36:35;;;;;;;;;;;8.20;99.90;;;;;;5101837;28;20265;-55
2023/05/17 10:39:06;;;;;;;;;;;8.20;99.90;;;;;;5091477;28;19920;-56
2023/05/17 10:41:34;;;;;;;;;;;8.30;99.90;;;;;;5099290;28;19920;-56
2023/05/17 10:44:02;;;;;;;;;;;8.40;99.90;;;;;;5101279;28;19927;-54
2023/05/17 10:46:29;;;;;;;;;;;8.50;99.90;;;;;;5108022;28;19924;-56
2023/05/17 10:48:57;;;;;;;;;;;8.50;99.90;;;;;;5111693;28;19942;-55
2023/05/17 10:51:31;;;;;;;;;;;8.60;99.90;;;;;;5100395;28;19927;-57
2023/05/17 10:54:08;;;;;;;;;;;8.60;99.90;;;;;;5114187;28;19927;-56
2023/05/17 10:56:37;;;;;;;;;;;8.70;99.90;;;;;;5113218;28;19926;-54
2023/05/17 10:59:13;;;;;;;;;;;8.70;99.90;;;;;;5103641;28;19920;-53
2023/05/17 11:01:53;;;;;;;;;;;8.70;99.90;;;;;;5112842;28;19927;-56
2023/05/17 11:04:31;;;;;;;;;;;8.70;99.90;;;;;;5115564;28;19926;-56
2023/05/17 11:07:16;;;;;;;;;;;8.60;99.90;;;;;;5110826;28;19919;-54
2023/05/17 11:09:43;;;;;;;;;;;8.60;99.90;;;;;;5111329;28;19919;-56
2023/05/17 11:12:10;;;;;;;;;;;8.60;99.90;;;;;;5109605;28;19927;-56
2023/05/17 11:14:46;;;;;;;;;;;8.60;99.90;;;;;;5106405;28;19964;-54
2023/05/17 11:17:14;;;;;;;;;;;8.70;99.90;;;;;;5107754;28;19919;-57
2023/05/17 11:19:49;;;;;;;;;;;8.80;99.90;;;;;;5094695;28;19920;-57
2023/05/17 11:22:17;;;;;;;;;;;9.00;99.90;;;;;;5102516;28;20215;-57
2023/05/17 11:24:44;;;;;;;;;;;9.00;99.90;;;;;;5109407;28;19926;-57
2023/05/17 11:27:12;;;;;;;;;;;9.10;99.90;;;;;;5109651;28;20117;-54
2023/05/17 11:29:40;;;;;;;;;;;9.10;99.90;;;;;;5106133;28;19920;-58
2023/05/17 11:32:09;;;;;;;;;;;9.10;99.90;;;;;;5105372;28;19920;-55
2023/05/17 11:34:35;;;;;;;;;;;9.20;99.90;;;;;;5112854;28;19923;-54
2023/05/17 11:37:04;;;;;;;;;;;9.20;99.90;;;;;;5107784;28;19969;-54
2023/05/17 11:39:31;;;;;;;;;;;9.30;99.90;;;;;;5108977;28;19926;-58
2023/05/17 11:41:58;;;;;;;;;;;9.50;99.90;;;;;;5106419;28;19923;-54
2023/05/17 11:44:32;;;;;;;;;;;9.70;99.90;;;;;;5105992;28;19920;-56
2023/05/17 11:47:02;;;;;;;;;;;9.80;99.90;;;;;;5107352;28;19920;-54
2023/05/17 11:49:31;;;;;;;;;;;10.00;99.90;;;;;;5097506;28;20291;-57
2023/05/17 11:52:02;;;;;;;;;;;10.30;99.90;;;;;;5099027;28;19961;-55
2023/05/17 11:54:29;;;;;;;;;;;10.40;99.90;;;;;;5104939;28;19926;-57
2023/05/17 11:56:57;;;;;;;;;;;10.60;99.90;;;;;;5105543;28;19943;-54
2023/05/17 11:59:23;;;;;;;;;;;10.90;99.90;;;;;;5114619;28;19927;-57
2023/05/17 12:01:51;;;;;;;;;;;11.00;99.90;;;;;;5105519;28;20299;-56
2023/05/17 12:04:25;;;;;;;;;;;11.20;99.90;;;;;;5105337;28;20508;-58
2023/05/17 12:06:53;;;;;;;;;;;11.40;99.90;;;;;;5102738;28;19961;-58
2023/05/17 12:09:21;;;;;;;;;;;11.60;99.90;;;;;;5102049;28;19920;-55
2023/05/17 12:11:47;;;;;;;;;;;11.70;99.90;;;;;;5111450;28;19923;-55
2023/05/17 12:14:15;;;;;;;;;;;11.60;99.90;;;;;;5102021;28;19920;-56
2023/05/17 12:16:43;;;;;;;;;;;11.70;99.90;;;;;;5109498;28;19919;-54
2023/05/17 12:19:20;;;;;;;;;;;11.80;99.90;;;;;;5094018;28;19927;-53
2023/05/17 12:21:48;;;;;;;;;;;11.80;99.90;;;;;;5104426;28;20360;-58
2023/05/17 12:24:15;;;;;;;;;;;11.70;99.90;;;;;;5105120;28;19920;-55
2023/05/17 12:26:43;;;;;;;;;;;11.60;99.90;;;;;;5114059;28;19927;-53
2023/05/17 12:29:10;;;;;;;;;;;11.50;99.90;;;;;;5087260;28;20388;-58
2023/05/17 12:31:41;;;;;;;;;;;11.40;99.90;;;;;;5112673;28;19926;-57
2023/05/17 12:34:09;;;;;;;;;;;11.50;99.90;;;;;;5106628;28;19926;-55
2023/05/17 12:36:36;;;;;;;;;;;11.70;99.90;;;;;;5104501;28;19930;-57
2023/05/17 12:39:05;;;;;;;;;;;11.70;99.90;;;;;;5093323;28;19920;-58
2023/05/17 12:41:31;;;;;;;;;;;11.60;99.90;;;;;;5093317;28;19920;-57
2023/05/17 12:43:58;;;;;;;;;;;11.60;99.90;;;;;;5109794;28;20280;-55
2023/05/17 12:46:40;;;;;;;;;;;11.50;99.90;;;;;;5110619;28;20379;-58
2023/05/17 12:49:07;;;;;;;;;;;11.60;99.90;;;;;;5113736;28;19927;-56
2023/05/17 12:51:42;;;;;;;;;;;11.60;99.90;;;;;;5103910;28;19924;-54
2023/05/17 12:54:10;;;;;;;;;;;11.60;99.90;;;;;;5101563;28;19930;-57
2023/05/17 12:56:36;;;;;;;;;;;11.70;99.90;;;;;;5101416;28;19927;-55
2023/05/17 12:59:12;;;;;;;;;;;11.90;99.90;;;;;;5109073;28;19920;-55
2023/05/17 13:01:43;;;;;;;;;;;12.10;99.90;;;;;;5109156;28;19920;-57
2023/05/17 13:04:11;;;;;;;;;;;12.40;99.90;;;;;;5086962;28;20326;-56
2023/05/17 13:06:45;;;;;;;;;;;12.60;99.90;;;;;;5112132;28;19923;-57
2023/05/17 13:09:13;;;;;;;;;;;12.80;99.90;;;;;;5106987;28;20011;-55
2023/05/17 13:11:40;;;;;;;;;;;12.90;99.90;;;;;;5102028;28;19920;-57
2023/05/17 13:14:07;;;;;;;;;;;12.90;99.90;;;;;;5098837;28;19935;-58
2023/05/17 13:16:38;;;;;;;;;;;13.00;99.90;;;;;;5092536;28;19973;-54
2023/05/17 13:19:12;;;;;;;;;;;13.20;99.90;;;;;;5104039;28;19985;-54
2023/05/17 13:21:39;;;;;;;;;;;13.30;99.90;;;;;;5112770;28;20016;-53
2023/05/17 13:24:07;;;;;;;;;;;12.90;99.90;;;;;;5107137;28;20008;-55
2023/05/17 13:26:34;;;;;;;;;;;12.80;99.90;;;;;;5100329;28;20338;-55
2023/05/17 13:29:01;;;;;;;;;;;12.90;99.90;;;;;;5112805;28;19926;-57
2023/05/17 13:31:27;;;;;;;;;;;13.10;99.90;;;;;;5105014;28;19924;-56
2023/05/17 13:33:55;;;;;;;;;;;13.30;99.90;;;;;;5108962;28;19928;-55
2023/05/17 13:36:22;;;;;;;;;;;13.60;99.90;;;;;;5099605;28;20023;-54
2023/05/17 13:38:49;;;;;;;;;;;13.80;99.90;;;;;;5110384;28;19926;-54
2023/05/17 13:41:16;;;;;;;;;;;14.00;99.90;;;;;;5100109;28;19924;-55
2023/05/17 13:43:43;;;;;;;;;;;13.90;99.90;;;;;;5101091;28;19920;-57
2023/05/17 13:46:09;;;;;;;;;;;14.00;99.90;;;;;;5092763;28;19928;-54
2023/05/17 13:48:36;;;;;;;;;;;14.00;99.90;;;;;;5100291;28;19928;-56
2023/05/17 13:51:06;;;;;;;;;;;14.00;99.90;;;;;;5097516;28;20395;-55
2023/05/17 13:53:33;;;;;;;;;;;14.00;99.90;;;;;;5111782;28;20403;-54
2023/05/17 13:56:00;;;;;;;;;;;13.90;99.90;;;;;;5099460;28;20376;-58
2023/05/17 13:58:27;;;;;;;;;;;13.80;99.90;;;;;;5107912;28;19919;-55
2023/05/17 14:00:53;;;;;;;;;;;13.90;99.90;;;;;;5101812;28;19927;-57
2023/05/17 14:03:20;;;;;;;;;;;14.10;99.90;;;;;;5097154;28;19920;-57
2023/05/17 14:05:49;;;;;;;;;;;14.30;99.90;;;;;;5093270;28;20010;-56
2023/05/17 14:08:16;;;;;;;;;;;14.50;99.90;;;;;;5106215;28;19969;-54
2023/05/17 14:10:43;;;;;;;;;;;14.60;99.90;;;;;;5102172;28;19924;-53
2023/05/17 14:13:10;;;;;;;;;;;14.70;99.90;;;;;;5111979;28;19920;-58
2023/05/17 14:15:38;;;;;;;;;;;14.50;99.90;;;;;;5103035;28;19926;-58
2023/05/17 14:18:05;;;;;;;;;;;14.30;99.90;;;;;;5111406;28;19993;-55
2023/05/17 14:20:32;;;;;;;;;;;14.20;99.90;;;;;;5110594;28;19919;-57
2023/05/17 14:22:59;;;;;;;;;;;14.00;99.90;;;;;;5107621;28;19935;-56
2023/05/17 14:25:26;;;;;;;;;;;13.80;99.90;;;;;;5106246;28;19927;-54
2023/05/17 14:27:53;;;;;;;;;;;13.70;99.90;;;;;;5100572;28;20318;-56
2023/05/17 14:30:20;;;;;;;;;;;13.50;99.90;;;;;;5091506;28;19942;-57
2023/05/17 14:32:46;;;;;;;;;;;13.40;99.90;;;;;;5092146;28;19947;-56
2023/05/17 14:35:14;;;;;;;;;;;13.30;99.90;;;;;;5103481;28;20429;-57